N13151 KBED-KBDL
Flight info
| Callsign | N13151 |
|---|---|
| Flight time | 0h 56m |
| Altitude | 4000 |
| Route | KBED BOSOX GRAYM DOCEB KBDL |
| Aircraft | C172/L-VGD/C |
Departure
| Time | 2026-04-29 00:40 |
|---|---|
| Airport | Laurence G Hanscom Field (KBED) |
Arrival
| Time | 2026-04-29 01:36 |
|---|---|
| Airport | Bradley International Airport (KBDL) |
| Time | Latitude | Longitude | Altitude | Speed | Heading |
|---|---|---|---|---|---|
| 2026-04-29 00:26 | 42.46397 | -71.29081 | 133 ft | 0 kts | 193° |
| 2026-04-29 00:35 | 42.46390 | -71.29082 | 132 ft | 8 kts | 184° |
| 2026-04-29 00:35 | 42.46378 | -71.29134 | 133 ft | 6 kts | 303° |
| 2026-04-29 00:36 | 42.46394 | -71.29176 | 133 ft | 4 kts | 303° |
| 2026-04-29 00:36 | 42.46414 | -71.29235 | 133 ft | 13 kts | 266° |
| 2026-04-29 00:36 | 42.46339 | -71.29332 | 132 ft | 17 kts | 215° |
| 2026-04-29 00:36 | 42.46244 | -71.29440 | 132 ft | 16 kts | 244° |
| 2026-04-29 00:37 | 42.46287 | -71.29559 | 128 ft | 15 kts | 308° |
| 2026-04-29 00:37 | 42.46304 | -71.29591 | 130 ft | 0 kts | 294° |
| 2026-04-29 00:38 | 42.46305 | -71.29593 | 130 ft | 4 kts | 297° |
| 2026-04-29 00:38 | 42.46355 | -71.29670 | 130 ft | 13 kts | 350° |
| 2026-04-29 00:39 | 42.46433 | -71.29593 | 128 ft | 27 kts | 38° |
| 2026-04-29 00:39 | 42.46721 | -71.29297 | 140 ft | 73 kts | 40° |
| 2026-04-29 00:39 | 42.47169 | -71.28858 | 302 ft | 83 kts | 44° |
| 2026-04-29 00:39 | 42.47659 | -71.28400 | 549 ft | 81 kts | 38° |
| 2026-04-29 00:40 | 42.48092 | -71.27970 | 838 ft | 76 kts | 41° |
| 2026-04-29 00:40 | 42.48544 | -71.27561 | 1082 ft | 79 kts | 40° |
| 2026-04-29 00:40 | 42.48998 | -71.27159 | 1367 ft | 78 kts | 40° |
| 2026-04-29 00:40 | 42.49456 | -71.26772 | 1627 ft | 78 kts | 39° |
| 2026-04-29 00:41 | 42.49922 | -71.26392 | 1882 ft | 78 kts | 38° |
| 2026-04-29 00:41 | 42.50505 | -71.26488 | 2000 ft | 107 kts | 330° |
| 2026-04-29 00:41 | 42.51009 | -71.27335 | 2010 ft | 129 kts | 288° |
| 2026-04-29 00:41 | 42.50917 | -71.28571 | 2035 ft | 134 kts | 255° |
| 2026-04-29 00:42 | 42.50716 | -71.29736 | 2303 ft | 121 kts | 256° |
| 2026-04-29 00:42 | 42.50527 | -71.30803 | 2575 ft | 111 kts | 255° |
| 2026-04-29 00:42 | 42.50350 | -71.31771 | 2859 ft | 103 kts | 255° |
| 2026-04-29 00:42 | 42.50182 | -71.32670 | 3144 ft | 94 kts | 255° |
| 2026-04-29 00:43 | 42.50022 | -71.33497 | 3395 ft | 90 kts | 255° |
| 2026-04-29 00:43 | 42.49858 | -71.34340 | 3546 ft | 96 kts | 255° |
| 2026-04-29 00:43 | 42.49690 | -71.35226 | 3734 ft | 96 kts | 255° |
| 2026-04-29 00:43 | 42.49516 | -71.36103 | 3931 ft | 97 kts | 255° |
| 2026-04-29 00:44 | 42.49330 | -71.37022 | 4009 ft | 109 kts | 255° |
| 2026-04-29 00:44 | 42.49123 | -71.38067 | 4012 ft | 119 kts | 256° |
| 2026-04-29 00:44 | 42.48907 | -71.39168 | 4014 ft | 122 kts | 256° |
| 2026-04-29 00:44 | 42.48684 | -71.40294 | 4012 ft | 124 kts | 256° |
| 2026-04-29 00:45 | 42.48458 | -71.41430 | 4010 ft | 125 kts | 256° |
| 2026-04-29 00:45 | 42.48232 | -71.42563 | 4011 ft | 124 kts | 256° |
| 2026-04-29 00:45 | 42.48011 | -71.43683 | 4009 ft | 124 kts | 256° |
| 2026-04-29 00:45 | 42.47784 | -71.44825 | 4013 ft | 124 kts | 256° |
| 2026-04-29 00:46 | 42.47561 | -71.45950 | 4014 ft | 124 kts | 256° |
| 2026-04-29 00:46 | 42.47339 | -71.47074 | 4011 ft | 123 kts | 256° |
| 2026-04-29 00:46 | 42.47119 | -71.48181 | 4012 ft | 124 kts | 256° |
| 2026-04-29 00:46 | 42.46892 | -71.49306 | 4017 ft | 124 kts | 256° |
| 2026-04-29 00:47 | 42.46664 | -71.50439 | 4014 ft | 125 kts | 256° |
| 2026-04-29 00:47 | 42.46435 | -71.51573 | 4018 ft | 125 kts | 256° |
| 2026-04-29 00:47 | 42.46206 | -71.52707 | 4019 ft | 125 kts | 256° |
| 2026-04-29 00:47 | 42.45711 | -71.53631 | 3999 ft | 123 kts | 212° |
| 2026-04-29 00:48 | 42.44983 | -71.54225 | 4001 ft | 122 kts | 210° |
| 2026-04-29 00:48 | 42.44255 | -71.54818 | 4003 ft | 122 kts | 210° |
| 2026-04-29 00:48 | 42.43523 | -71.55410 | 4003 ft | 123 kts | 210° |
| 2026-04-29 00:48 | 42.42764 | -71.55940 | 3995 ft | 122 kts | 190° |
| 2026-04-29 00:49 | 42.41929 | -71.56101 | 4003 ft | 122 kts | 194° |
| 2026-04-29 00:49 | 42.41216 | -71.56720 | 4008 ft | 124 kts | 225° |
| 2026-04-29 00:49 | 42.40621 | -71.57567 | 4013 ft | 124 kts | 227° |
| 2026-04-29 00:49 | 42.40036 | -71.58427 | 4015 ft | 124 kts | 228° |
| 2026-04-29 00:50 | 42.39465 | -71.59279 | 4017 ft | 124 kts | 229° |
| 2026-04-29 00:50 | 42.39123 | -71.60325 | 4015 ft | 123 kts | 257° |
| 2026-04-29 00:50 | 42.38886 | -71.61437 | 4014 ft | 123 kts | 254° |
| 2026-04-29 00:50 | 42.38625 | -71.62542 | 4016 ft | 123 kts | 253° |
| 2026-04-29 00:51 | 42.38492 | -71.63673 | 4017 ft | 122 kts | 270° |
| 2026-04-29 00:51 | 42.38449 | -71.64817 | 4015 ft | 122 kts | 268° |
| 2026-04-29 00:51 | 42.38385 | -71.65958 | 4009 ft | 122 kts | 267° |
| 2026-04-29 00:51 | 42.38314 | -71.67099 | 4010 ft | 122 kts | 267° |
| 2026-04-29 00:52 | 42.38240 | -71.68243 | 4012 ft | 122 kts | 267° |
| 2026-04-29 00:52 | 42.38165 | -71.69388 | 3999 ft | 122 kts | 267° |
| 2026-04-29 00:52 | 42.38091 | -71.70518 | 3998 ft | 122 kts | 266° |
| 2026-04-29 00:52 | 42.38015 | -71.71659 | 3998 ft | 122 kts | 266° |
| 2026-04-29 00:53 | 42.37939 | -71.72803 | 3997 ft | 122 kts | 266° |
| 2026-04-29 00:53 | 42.37863 | -71.73943 | 3995 ft | 121 kts | 266° |
| 2026-04-29 00:53 | 42.37787 | -71.75076 | 3995 ft | 121 kts | 266° |
| 2026-04-29 00:53 | 42.37711 | -71.76205 | 3993 ft | 120 kts | 266° |
| 2026-04-29 00:54 | 42.37635 | -71.77333 | 3991 ft | 120 kts | 266° |
| 2026-04-29 00:54 | 42.37560 | -71.78458 | 3991 ft | 120 kts | 266° |
| 2026-04-29 00:54 | 42.37484 | -71.79583 | 3991 ft | 120 kts | 266° |
| 2026-04-29 00:54 | 42.37408 | -71.80706 | 3992 ft | 120 kts | 266° |
| 2026-04-29 00:55 | 42.37332 | -71.81835 | 3991 ft | 120 kts | 266° |
| 2026-04-29 00:55 | 42.37256 | -71.82958 | 3994 ft | 120 kts | 266° |
| 2026-04-29 00:55 | 42.37181 | -71.84080 | 3994 ft | 120 kts | 266° |
| 2026-04-29 00:55 | 42.37105 | -71.85204 | 3991 ft | 119 kts | 266° |
| 2026-04-29 00:56 | 42.37029 | -71.86311 | 3990 ft | 120 kts | 266° |
| 2026-04-29 00:56 | 42.36953 | -71.87429 | 3991 ft | 119 kts | 266° |
| 2026-04-29 00:56 | 42.36877 | -71.88547 | 3992 ft | 119 kts | 266° |
| 2026-04-29 00:56 | 42.36801 | -71.89662 | 3990 ft | 119 kts | 266° |
| 2026-04-29 00:57 | 42.36725 | -71.90780 | 3990 ft | 119 kts | 266° |
| 2026-04-29 00:57 | 42.36649 | -71.91897 | 3991 ft | 119 kts | 266° |
| 2026-04-29 00:57 | 42.36572 | -71.93011 | 3990 ft | 119 kts | 266° |
| 2026-04-29 00:57 | 42.36496 | -71.94122 | 3994 ft | 119 kts | 266° |
| 2026-04-29 00:58 | 42.36420 | -71.95234 | 3991 ft | 119 kts | 266° |
| 2026-04-29 00:58 | 42.36343 | -71.96344 | 3991 ft | 119 kts | 266° |
| 2026-04-29 00:58 | 42.36267 | -71.97455 | 3989 ft | 118 kts | 266° |
| 2026-04-29 00:58 | 42.36191 | -71.98564 | 3992 ft | 118 kts | 265° |
| 2026-04-29 00:59 | 42.36114 | -71.99670 | 3992 ft | 118 kts | 265° |
| 2026-04-29 00:59 | 42.36038 | -72.00774 | 3991 ft | 118 kts | 265° |
| 2026-04-29 00:59 | 42.35962 | -72.01877 | 3989 ft | 118 kts | 265° |
| 2026-04-29 00:59 | 42.35885 | -72.02979 | 4007 ft | 118 kts | 265° |
| 2026-04-29 01:00 | 42.35809 | -72.04078 | 4006 ft | 117 kts | 265° |
| 2026-04-29 01:00 | 42.35732 | -72.05180 | 4004 ft | 117 kts | 265° |
| 2026-04-29 01:00 | 42.35657 | -72.06265 | 4003 ft | 117 kts | 265° |
| 2026-04-29 01:00 | 42.35580 | -72.07363 | 4005 ft | 117 kts | 264° |
| 2026-04-29 01:01 | 42.35504 | -72.08461 | 4001 ft | 117 kts | 264° |
| 2026-04-29 01:01 | 42.35427 | -72.09558 | 4002 ft | 117 kts | 264° |
| 2026-04-29 01:01 | 42.35351 | -72.10650 | 3999 ft | 117 kts | 264° |
| 2026-04-29 01:01 | 42.35274 | -72.11739 | 4002 ft | 116 kts | 264° |
| 2026-04-29 01:02 | 42.35198 | -72.12827 | 3997 ft | 116 kts | 264° |
| 2026-04-29 01:02 | 42.35121 | -72.13912 | 3998 ft | 116 kts | 264° |
| 2026-04-29 01:02 | 42.35046 | -72.14983 | 3998 ft | 116 kts | 263° |
| 2026-04-29 01:02 | 42.34970 | -72.16066 | 3998 ft | 116 kts | 263° |
| 2026-04-29 01:03 | 42.34893 | -72.17150 | 3992 ft | 116 kts | 263° |
| 2026-04-29 01:03 | 42.34817 | -72.18234 | 3984 ft | 116 kts | 263° |
| 2026-04-29 01:03 | 42.34740 | -72.19316 | 3981 ft | 115 kts | 263° |
| 2026-04-29 01:03 | 42.34664 | -72.20393 | 3980 ft | 115 kts | 263° |
| 2026-04-29 01:04 | 42.34613 | -72.21104 | 3979 ft | 115 kts | 263° |
| 2026-04-29 01:04 | 42.34537 | -72.22180 | 3989 ft | 115 kts | 263° |
| 2026-04-29 01:04 | 42.34461 | -72.23254 | 3983 ft | 114 kts | 262° |
| 2026-04-29 01:04 | 42.34385 | -72.24303 | 4017 ft | 112 kts | 262° |
| 2026-04-29 01:05 | 42.34310 | -72.25361 | 4017 ft | 114 kts | 262° |
| 2026-04-29 01:05 | 42.34234 | -72.26429 | 4023 ft | 115 kts | 262° |
| 2026-04-29 01:05 | 42.34157 | -72.27506 | 4021 ft | 115 kts | 262° |
| 2026-04-29 01:05 | 42.34082 | -72.28565 | 4021 ft | 114 kts | 262° |
| 2026-04-29 01:06 | 42.34005 | -72.29632 | 4023 ft | 114 kts | 262° |
| 2026-04-29 01:06 | 42.33928 | -72.30701 | 3997 ft | 115 kts | 261° |
| 2026-04-29 01:06 | 42.33851 | -72.31772 | 3993 ft | 114 kts | 261° |
| 2026-04-29 01:06 | 42.33775 | -72.32831 | 3991 ft | 113 kts | 261° |
| 2026-04-29 01:07 | 42.33699 | -72.33887 | 3986 ft | 112 kts | 261° |
| 2026-04-29 01:07 | 42.33622 | -72.34943 | 3987 ft | 113 kts | 261° |
| 2026-04-29 01:07 | 42.33546 | -72.35997 | 3984 ft | 112 kts | 261° |
| 2026-04-29 01:07 | 42.33470 | -72.37051 | 3983 ft | 113 kts | 261° |
| 2026-04-29 01:08 | 42.33393 | -72.38104 | 3983 ft | 113 kts | 260° |
| 2026-04-29 01:08 | 42.33317 | -72.39159 | 3983 ft | 113 kts | 260° |
| 2026-04-29 01:08 | 42.33239 | -72.40228 | 3989 ft | 116 kts | 261° |
| 2026-04-29 01:08 | 42.33162 | -72.41296 | 3987 ft | 115 kts | 260° |
| 2026-04-29 01:09 | 42.33084 | -72.42378 | 3993 ft | 116 kts | 261° |
| 2026-04-29 01:09 | 42.33005 | -72.43468 | 3996 ft | 117 kts | 260° |
| 2026-04-29 01:09 | 42.32925 | -72.44562 | 3996 ft | 117 kts | 260° |
| 2026-04-29 01:09 | 42.32846 | -72.45646 | 3991 ft | 115 kts | 259° |
| 2026-04-29 01:10 | 42.32766 | -72.46735 | 3993 ft | 116 kts | 259° |
| 2026-04-29 01:10 | 42.32687 | -72.47804 | 3991 ft | 115 kts | 260° |
| 2026-04-29 01:10 | 42.32608 | -72.48875 | 3987 ft | 114 kts | 259° |
| 2026-04-29 01:10 | 42.32529 | -72.49948 | 3985 ft | 115 kts | 259° |
| 2026-04-29 01:11 | 42.32450 | -72.51021 | 3985 ft | 115 kts | 259° |
| 2026-04-29 01:11 | 42.32371 | -72.52093 | 3985 ft | 114 kts | 259° |
| 2026-04-29 01:11 | 42.32292 | -72.53160 | 3982 ft | 114 kts | 259° |
| 2026-04-29 01:11 | 42.32214 | -72.54219 | 3983 ft | 113 kts | 259° |
| 2026-04-29 01:12 | 42.32135 | -72.55280 | 3982 ft | 114 kts | 259° |
| 2026-04-29 01:12 | 42.32056 | -72.56349 | 3982 ft | 115 kts | 259° |
| 2026-04-29 01:12 | 42.31977 | -72.57424 | 3982 ft | 115 kts | 260° |
| 2026-04-29 01:12 | 42.31897 | -72.58500 | 3984 ft | 115 kts | 259° |
| 2026-04-29 01:13 | 42.31817 | -72.59576 | 3984 ft | 115 kts | 259° |
| 2026-04-29 01:13 | 42.31737 | -72.60641 | 3983 ft | 113 kts | 259° |
| 2026-04-29 01:13 | 42.31658 | -72.61704 | 3982 ft | 114 kts | 259° |
| 2026-04-29 01:13 | 42.31579 | -72.62764 | 3985 ft | 115 kts | 259° |
| 2026-04-29 01:14 | 42.31499 | -72.63837 | 3987 ft | 115 kts | 260° |
| 2026-04-29 01:14 | 42.31418 | -72.64914 | 3985 ft | 115 kts | 258° |
| 2026-04-29 01:14 | 42.31337 | -72.65998 | 3986 ft | 116 kts | 259° |
| 2026-04-29 01:14 | 42.31256 | -72.67083 | 3989 ft | 116 kts | 259° |
| 2026-04-29 01:15 | 42.31175 | -72.68164 | 4004 ft | 115 kts | 259° |
| 2026-04-29 01:15 | 42.31094 | -72.69242 | 4005 ft | 115 kts | 259° |
| 2026-04-29 01:15 | 42.31013 | -72.70322 | 4004 ft | 116 kts | 259° |
| 2026-04-29 01:15 | 42.30931 | -72.71405 | 4005 ft | 116 kts | 258° |
| 2026-04-29 01:16 | 42.30850 | -72.72474 | 4005 ft | 115 kts | 259° |
| 2026-04-29 01:16 | 42.30769 | -72.73556 | 4005 ft | 114 kts | 258° |
| 2026-04-29 01:16 | 42.30689 | -72.74605 | 4003 ft | 114 kts | 258° |
| 2026-04-29 01:16 | 42.30607 | -72.75683 | 4002 ft | 116 kts | 259° |
| 2026-04-29 01:17 | 42.30525 | -72.76762 | 4004 ft | 115 kts | 259° |
| 2026-04-29 01:17 | 42.30443 | -72.77843 | 4002 ft | 116 kts | 259° |
| 2026-04-29 01:17 | 42.30361 | -72.78931 | 4001 ft | 116 kts | 259° |
| 2026-04-29 01:17 | 42.30278 | -72.80025 | 4007 ft | 117 kts | 258° |
| 2026-04-29 01:18 | 42.30193 | -72.81133 | 4006 ft | 119 kts | 258° |
| 2026-04-29 01:18 | 42.30025 | -72.83344 | 3997 ft | 117 kts | 259° |
| 2026-04-29 01:18 | 42.29941 | -72.84434 | 3996 ft | 117 kts | 259° |
| 2026-04-29 01:19 | 42.29857 | -72.85524 | 3992 ft | 116 kts | 259° |
| 2026-04-29 01:19 | 42.29776 | -72.86587 | 3995 ft | 115 kts | 259° |
| 2026-04-29 01:19 | 42.29692 | -72.87667 | 3993 ft | 117 kts | 259° |
| 2026-04-29 01:19 | 42.29608 | -72.88759 | 3991 ft | 117 kts | 259° |
| 2026-04-29 01:20 | 42.29523 | -72.89860 | 3991 ft | 118 kts | 259° |
| 2026-04-29 01:20 | 42.29438 | -72.90965 | 3994 ft | 118 kts | 259° |
| 2026-04-29 01:20 | 42.29354 | -72.92065 | 3989 ft | 117 kts | 259° |
| 2026-04-29 01:20 | 42.29215 | -72.93140 | 3985 ft | 114 kts | 243° |
| 2026-04-29 01:21 | 42.28746 | -72.93969 | 3974 ft | 111 kts | 215° |
| 2026-04-29 01:21 | 42.28030 | -72.94385 | 3808 ft | 115 kts | 187° |
| 2026-04-29 01:21 | 42.27233 | -72.94262 | 3613 ft | 117 kts | 165° |
| 2026-04-29 01:21 | 42.26455 | -72.93967 | 3494 ft | 115 kts | 166° |
| 2026-04-29 01:22 | 42.25701 | -72.93687 | 3489 ft | 110 kts | 166° |
| 2026-04-29 01:22 | 42.24988 | -72.93423 | 3476 ft | 102 kts | 166° |
| 2026-04-29 01:22 | 42.24316 | -72.93172 | 3477 ft | 100 kts | 166° |
| 2026-04-29 01:22 | 42.23648 | -72.92925 | 3480 ft | 99 kts | 166° |
| 2026-04-29 01:23 | 42.22978 | -72.92678 | 3478 ft | 100 kts | 167° |
| 2026-04-29 01:23 | 42.22300 | -72.92429 | 3481 ft | 101 kts | 167° |
| 2026-04-29 01:23 | 42.21617 | -72.92179 | 3485 ft | 102 kts | 167° |
| 2026-04-29 01:23 | 42.20931 | -72.91927 | 3484 ft | 102 kts | 167° |
| 2026-04-29 01:24 | 42.20244 | -72.91676 | 3487 ft | 103 kts | 167° |
| 2026-04-29 01:24 | 42.19544 | -72.91420 | 3490 ft | 105 kts | 167° |
| 2026-04-29 01:24 | 42.18836 | -72.91161 | 3490 ft | 105 kts | 167° |
| 2026-04-29 01:24 | 42.18129 | -72.90902 | 3491 ft | 105 kts | 168° |
| 2026-04-29 01:25 | 42.17427 | -72.90645 | 3493 ft | 104 kts | 167° |
| 2026-04-29 01:25 | 42.16728 | -72.90389 | 3497 ft | 105 kts | 167° |
| 2026-04-29 01:25 | 42.16020 | -72.90130 | 3493 ft | 106 kts | 167° |
| 2026-04-29 01:25 | 42.15321 | -72.89874 | 3492 ft | 105 kts | 167° |
| 2026-04-29 01:26 | 42.14616 | -72.89616 | 3493 ft | 105 kts | 167° |
| 2026-04-29 01:26 | 42.13905 | -72.89356 | 3495 ft | 106 kts | 167° |
| 2026-04-29 01:26 | 42.13195 | -72.89097 | 3493 ft | 105 kts | 167° |
| 2026-04-29 01:26 | 42.12496 | -72.88841 | 3493 ft | 105 kts | 167° |
| 2026-04-29 01:27 | 42.11797 | -72.88585 | 3494 ft | 103 kts | 167° |
| 2026-04-29 01:27 | 42.11102 | -72.88331 | 3488 ft | 103 kts | 168° |
| 2026-04-29 01:27 | 42.10406 | -72.88076 | 3490 ft | 104 kts | 167° |
| 2026-04-29 01:27 | 42.09708 | -72.87821 | 3488 ft | 104 kts | 167° |
| 2026-04-29 01:28 | 42.09008 | -72.87566 | 3490 ft | 105 kts | 167° |
| 2026-04-29 01:28 | 42.08301 | -72.87309 | 3490 ft | 105 kts | 167° |
| 2026-04-29 01:28 | 42.07599 | -72.87052 | 3489 ft | 104 kts | 168° |
| 2026-04-29 01:28 | 42.06912 | -72.86707 | 3458 ft | 110 kts | 149° |
| 2026-04-29 01:29 | 42.06346 | -72.85966 | 3311 ft | 114 kts | 138° |
| 2026-04-29 01:29 | 42.05790 | -72.85202 | 3160 ft | 114 kts | 139° |
| 2026-04-29 01:29 | 42.05245 | -72.84453 | 3007 ft | 110 kts | 138° |
| 2026-04-29 01:29 | 42.04709 | -72.83717 | 2802 ft | 112 kts | 138° |
| 2026-04-29 01:30 | 42.04162 | -72.82966 | 2572 ft | 113 kts | 138° |
| 2026-04-29 01:30 | 42.03629 | -72.82229 | 2492 ft | 105 kts | 138° |
| 2026-04-29 01:30 | 42.03143 | -72.81555 | 2488 ft | 92 kts | 139° |
| 2026-04-29 01:30 | 42.02719 | -72.80963 | 2484 ft | 87 kts | 139° |
| 2026-04-29 01:31 | 42.02316 | -72.80364 | 2518 ft | 86 kts | 136° |
| 2026-04-29 01:31 | 42.01905 | -72.79762 | 2558 ft | 88 kts | 139° |
| 2026-04-29 01:31 | 42.01479 | -72.79167 | 2611 ft | 89 kts | 140° |
| 2026-04-29 01:31 | 42.01033 | -72.78570 | 2555 ft | 96 kts | 140° |
| 2026-04-29 01:32 | 42.00540 | -72.77971 | 2458 ft | 95 kts | 139° |
| 2026-04-29 01:32 | 42.00071 | -72.77331 | 2342 ft | 94 kts | 141° |
| 2026-04-29 01:32 | 41.99622 | -72.76697 | 2176 ft | 95 kts | 137° |
| 2026-04-29 01:32 | 41.99163 | -72.76071 | 2033 ft | 95 kts | 140° |
| 2026-04-29 01:33 | 41.98701 | -72.75428 | 1862 ft | 96 kts | 138° |
| 2026-04-29 01:33 | 41.98239 | -72.74791 | 1691 ft | 95 kts | 138° |
| 2026-04-29 01:33 | 41.97775 | -72.74161 | 1498 ft | 96 kts | 137° |
| 2026-04-29 01:33 | 41.97327 | -72.73518 | 1325 ft | 92 kts | 139° |
| 2026-04-29 01:34 | 41.96864 | -72.72919 | 1189 ft | 92 kts | 139° |
| 2026-04-29 01:34 | 41.96412 | -72.72311 | 1046 ft | 93 kts | 136° |
| 2026-04-29 01:34 | 41.95953 | -72.71710 | 882 ft | 92 kts | 138° |
| 2026-04-29 01:34 | 41.95514 | -72.71104 | 677 ft | 86 kts | 133° |
| 2026-04-29 01:35 | 41.95112 | -72.70528 | 475 ft | 87 kts | 134° |
| 2026-04-29 01:35 | 41.94692 | -72.69948 | 338 ft | 83 kts | 134° |
| 2026-04-29 01:35 | 41.94324 | -72.69437 | 227 ft | 69 kts | 135° |
| 2026-04-29 01:35 | 41.94022 | -72.69026 | 174 ft | 53 kts | 133° |
| 2026-04-29 01:36 | 41.93814 | -72.68741 | 174 ft | 34 kts | 131° |
| 2026-04-29 01:36 | 41.93672 | -72.68546 | 171 ft | 26 kts | 137° |
| 2026-04-29 01:36 | 41.93564 | -72.68400 | 170 ft | 19 kts | 134° |
| 2026-04-29 01:36 | 41.93479 | -72.68287 | 168 ft | 15 kts | 141° |
| 2026-04-29 01:37 | 41.93413 | -72.68223 | 170 ft | 9 kts | 174° |
| 2026-04-29 01:37 | 41.93371 | -72.68264 | 171 ft | 8 kts | 231° |
| 2026-04-29 01:37 | 41.93360 | -72.68315 | 172 ft | 5 kts | 285° |
| 2026-04-29 01:37 | 41.93388 | -72.68371 | 171 ft | 15 kts | 314° |
| 2026-04-29 01:38 | 41.93495 | -72.68514 | 172 ft | 23 kts | 313° |
| 2026-04-29 01:38 | 41.93598 | -72.68654 | 173 ft | 20 kts | 314° |
| 2026-04-29 01:38 | 41.93686 | -72.68776 | 176 ft | 16 kts | 315° |
| 2026-04-29 01:38 | 41.93758 | -72.68880 | 176 ft | 14 kts | 299° |
| 2026-04-29 01:39 | 41.93814 | -72.68979 | 176 ft | 12 kts | 316° |
| 2026-04-29 01:39 | 41.93859 | -72.69052 | 176 ft | 4 kts | 279° |
| 2026-04-29 01:39 | 41.93837 | -72.69122 | 177 ft | 20 kts | 220° |
| 2026-04-29 01:39 | 41.93756 | -72.69233 | 176 ft | 14 kts | 212° |
| 2026-04-29 01:40 | 41.93722 | -72.69302 | 177 ft | 5 kts | 280° |
| 2026-04-29 01:40 | 41.93761 | -72.69367 | 175 ft | 11 kts | 316° |
| 2026-04-29 01:40 | 41.93770 | -72.69446 | 175 ft | 8 kts | 210° |
| 2026-04-29 01:40 | 41.93763 | -72.69450 | 175 ft | 0 kts | 206° |